sensor_id;sensor_type;location;lat;lon;timestamp;P1;durP1;ratioP1;P2;durP2;ratioP2
24635;SDS011;12772;49.794;10.024;2023-06-10T00:03:01;6.07;;;5.40;;
24635;SDS011;12772;49.794;10.024;2023-06-10T00:07:04;6.35;;;5.85;;
24635;SDS011;12772;49.794;10.024;2023-06-10T00:11:09;5.68;;;5.28;;
24635;SDS011;12772;49.794;10.024;2023-06-10T00:15:11;5.68;;;5.18;;
24635;SDS011;12772;49.794;10.024;2023-06-10T00:19:13;6.22;;;5.72;;
24635;SDS011;12772;49.794;10.024;2023-06-10T00:23:15;6.60;;;5.90;;
24635;SDS011;12772;49.794;10.024;2023-06-10T00:27:17;7.22;;;5.75;;
24635;SDS011;12772;49.794;10.024;2023-06-10T00:31:19;6.28;;;5.68;;
24635;SDS011;12772;49.794;10.024;2023-06-10T00:35:21;5.90;;;5.50;;
24635;SDS011;12772;49.794;10.024;2023-06-10T00:39:24;5.57;;;5.18;;
24635;SDS011;12772;49.794;10.024;2023-06-10T00:43:26;5.75;;;5.20;;
24635;SDS011;12772;49.794;10.024;2023-06-10T00:47:28;6.18;;;5.60;;
24635;SDS011;12772;49.794;10.024;2023-06-10T00:51:30;6.85;;;5.53;;
24635;SDS011;12772;49.794;10.024;2023-06-10T00:55:32;6.60;;;6.00;;
24635;SDS011;12772;49.794;10.024;2023-06-10T00:59:34;5.97;;;5.45;;
24635;SDS011;12772;49.794;10.024;2023-06-10T01:03:37;6.65;;;6.05;;
24635;SDS011;12772;49.794;10.024;2023-06-10T01:07:46;5.88;;;5.47;;
24635;SDS011;12772;49.794;10.024;2023-06-10T01:12:16;7.20;;;6.13;;
24635;SDS011;12772;49.794;10.024;2023-06-10T01:16:27;6.72;;;6.22;;
24635;SDS011;12772;49.794;10.024;2023-06-10T01:20:30;6.47;;;5.97;;
24635;SDS011;12772;49.794;10.024;2023-06-10T01:24:33;6.65;;;6.05;;
24635;SDS011;12772;49.794;10.024;2023-06-10T01:28:40;6.15;;;5.65;;
24635;SDS011;12772;49.794;10.024;2023-06-10T01:32:54;7.13;;;6.55;;
24635;SDS011;12772;49.794;10.024;2023-06-10T01:36:56;5.70;;;5.22;;
24635;SDS011;12772;49.794;10.024;2023-06-10T01:40:59;6.78;;;5.88;;
24635;SDS011;12772;49.794;10.024;2023-06-10T01:45:02;5.55;;;5.15;;
24635;SDS011;12772;49.794;10.024;2023-06-10T01:49:04;6.55;;;5.97;;
24635;SDS011;12772;49.794;10.024;2023-06-10T01:53:07;6.13;;;5.63;;
24635;SDS011;12772;49.794;10.024;2023-06-10T01:57:09;6.28;;;5.78;;
24635;SDS011;12772;49.794;10.024;2023-06-10T02:01:11;7.50;;;5.63;;
24635;SDS011;12772;49.794;10.024;2023-06-10T02:05:14;10.02;;;6.10;;
24635;SDS011;12772;49.794;10.024;2023-06-10T02:09:16;6.28;;;5.30;;
24635;SDS011;12772;49.794;10.024;2023-06-10T02:13:18;8.80;;;6.35;;
24635;SDS011;12772;49.794;10.024;2023-06-10T02:17:20;6.47;;;5.95;;
24635;SDS011;12772;49.794;10.024;2023-06-10T02:21:23;6.65;;;6.03;;
24635;SDS011;12772;49.794;10.024;2023-06-10T02:25:25;6.13;;;5.72;;
24635;SDS011;12772;49.794;10.024;2023-06-10T02:29:27;6.50;;;5.90;;
24635;SDS011;12772;49.794;10.024;2023-06-10T02:33:29;5.57;;;5.18;;
24635;SDS011;12772;49.794;10.024;2023-06-10T02:37:32;7.05;;;6.35;;
24635;SDS011;12772;49.794;10.024;2023-06-10T02:41:34;6.45;;;5.85;;
24635;SDS011;12772;49.794;10.024;2023-06-10T02:45:36;6.82;;;6.22;;
24635;SDS011;12772;49.794;10.024;2023-06-10T02:49:38;6.35;;;5.85;;
24635;SDS011;12772;49.794;10.024;2023-06-10T02:53:40;6.13;;;5.70;;
24635;SDS011;12772;49.794;10.024;2023-06-10T02:57:42;6.55;;;6.00;;
24635;SDS011;12772;49.794;10.024;2023-06-10T03:01:45;6.47;;;5.97;;
24635;SDS011;12772;49.794;10.024;2023-06-10T03:05:48;7.57;;;6.78;;
24635;SDS011;12772;49.794;10.024;2023-06-10T03:09:50;6.50;;;5.90;;
24635;SDS011;12772;49.794;10.024;2023-06-10T03:13:52;6.85;;;6.28;;
24635;SDS011;12772;49.794;10.024;2023-06-10T03:17:55;7.32;;;6.75;;
24635;SDS011;12772;49.794;10.024;2023-06-10T03:21:58;7.72;;;7.00;;
24635;SDS011;12772;49.794;10.024;2023-06-10T03:26:17;6.85;;;6.25;;
24635;SDS011;12772;49.794;10.024;2023-06-10T03:30:22;7.53;;;6.93;;
24635;SDS011;12772;49.794;10.024;2023-06-10T03:34:24;8.10;;;7.30;;
24635;SDS011;12772;49.794;10.024;2023-06-10T03:38:26;7.32;;;6.63;;
24635;SDS011;12772;49.794;10.024;2023-06-10T03:42:28;6.93;;;6.25;;
24635;SDS011;12772;49.794;10.024;2023-06-10T03:46:30;7.10;;;6.50;;
24635;SDS011;12772;49.794;10.024;2023-06-10T03:50:32;7.93;;;6.95;;
24635;SDS011;12772;49.794;10.024;2023-06-10T03:54:34;6.90;;;6.32;;
24635;SDS011;12772;49.794;10.024;2023-06-10T03:58:36;7.40;;;6.88;;
24635;SDS011;12772;49.794;10.024;2023-06-10T04:02:38;6.18;;;5.68;;
24635;SDS011;12772;49.794;10.024;2023-06-10T04:06:46;7.63;;;6.90;;
24635;SDS011;12772;49.794;10.024;2023-06-10T04:10:49;7.80;;;6.95;;
24635;SDS011;12772;49.794;10.024;2023-06-10T04:14:51;6.95;;;6.35;;
24635;SDS011;12772;49.794;10.024;2023-06-10T04:18:53;7.63;;;7.03;;
24635;SDS011;12772;49.794;10.024;2023-06-10T04:22:56;7.47;;;6.80;;
24635;SDS011;12772;49.794;10.024;2023-06-10T04:26:58;7.60;;;6.90;;
24635;SDS011;12772;49.794;10.024;2023-06-10T04:31:00;7.68;;;6.97;;
24635;SDS011;12772;49.794;10.024;2023-06-10T04:35:04;8.77;;;7.30;;
24635;SDS011;12772;49.794;10.024;2023-06-10T04:39:07;6.55;;;6.05;;
24635;SDS011;12772;49.794;10.024;2023-06-10T04:43:09;7.90;;;7.07;;
24635;SDS011;12772;49.794;10.024;2023-06-10T04:47:11;7.40;;;6.80;;
24635;SDS011;12772;49.794;10.024;2023-06-10T04:51:13;7.88;;;7.25;;
24635;SDS011;12772;49.794;10.024;2023-06-10T04:55:15;7.63;;;7.03;;
24635;SDS011;12772;49.794;10.024;2023-06-10T04:59:18;7.57;;;6.78;;
24635;SDS011;12772;49.794;10.024;2023-06-10T05:03:20;13.95;;;7.07;;
24635;SDS011;12772;49.794;10.024;2023-06-10T05:07:22;7.20;;;6.50;;
24635;SDS011;12772;49.794;10.024;2023-06-10T05:11:24;7.95;;;7.25;;
24635;SDS011;12772;49.794;10.024;2023-06-10T05:15:26;6.82;;;6.25;;
24635;SDS011;12772;49.794;10.024;2023-06-10T05:19:28;7.15;;;6.55;;
24635;SDS011;12772;49.794;10.024;2023-06-10T05:23:30;6.32;;;5.82;;
24635;SDS011;12772;49.794;10.024;2023-06-10T05:27:33;7.22;;;6.53;;
24635;SDS011;12772;49.794;10.024;2023-06-10T05:31:36;6.88;;;6.28;;
24635;SDS011;12772;49.794;10.024;2023-06-10T05:35:38;7.00;;;6.25;;
24635;SDS011;12772;49.794;10.024;2023-06-10T05:39:41;6.40;;;5.80;;
24635;SDS011;12772;49.794;10.024;2023-06-10T05:43:43;7.43;;;6.60;;
24635;SDS011;12772;49.794;10.024;2023-06-10T05:47:45;7.28;;;6.55;;
24635;SDS011;12772;49.794;10.024;2023-06-10T05:51:47;6.70;;;6.20;;
24635;SDS011;12772;49.794;10.024;2023-06-10T05:55:49;8.80;;;5.50;;
24635;SDS011;12772;49.794;10.024;2023-06-10T05:59:52;6.32;;;5.82;;
24635;SDS011;12772;49.794;10.024;2023-06-10T06:03:54;8.20;;;6.45;;
24635;SDS011;12772;49.794;10.024;2023-06-10T06:07:56;6.68;;;5.97;;
24635;SDS011;12772;49.794;10.024;2023-06-10T06:11:58;6.63;;;6.13;;
24635;SDS011;12772;49.794;10.024;2023-06-10T06:16:00;6.82;;;6.32;;
24635;SDS011;12772;49.794;10.024;2023-06-10T06:20:02;6.70;;;6.03;;
24635;SDS011;12772;49.794;10.024;2023-06-10T06:24:05;6.75;;;6.25;;
24635;SDS011;12772;49.794;10.024;2023-06-10T06:28:09;7.43;;;6.20;;
24635;SDS011;12772;49.794;10.024;2023-06-10T06:32:11;6.93;;;6.32;;
24635;SDS011;12772;49.794;10.024;2023-06-10T06:36:13;8.18;;;6.35;;
24635;SDS011;12772;49.794;10.024;2023-06-10T06:40:15;7.60;;;6.53;;
24635;SDS011;12772;49.794;10.024;2023-06-10T06:44:17;7.07;;;6.40;;
24635;SDS011;12772;49.794;10.024;2023-06-10T06:48:20;8.00;;;6.85;;
24635;SDS011;12772;49.794;10.024;2023-06-10T06:52:22;7.57;;;6.85;;
24635;SDS011;12772;49.794;10.024;2023-06-10T06:56:24;7.35;;;6.72;;
24635;SDS011;12772;49.794;10.024;2023-06-10T07:00:27;6.90;;;6.30;;
24635;SDS011;12772;49.794;10.024;2023-06-10T07:04:29;8.27;;;7.55;;
24635;SDS011;12772;49.794;10.024;2023-06-10T07:08:31;9.48;;;7.57;;
24635;SDS011;12772;49.794;10.024;2023-06-10T07:12:33;7.82;;;6.80;;
24635;SDS011;12772;49.794;10.024;2023-06-10T07:16:35;7.18;;;6.57;;
24635;SDS011;12772;49.794;10.024;2023-06-10T07:20:37;7.80;;;7.20;;
24635;SDS011;12772;49.794;10.024;2023-06-10T07:24:39;8.00;;;7.15;;
24635;SDS011;12772;49.794;10.024;2023-06-10T07:28:41;7.72;;;7.07;;
24635;SDS011;12772;49.794;10.024;2023-06-10T07:32:43;7.45;;;6.65;;
24635;SDS011;12772;49.794;10.024;2023-06-10T07:36:45;7.70;;;7.00;;
24635;SDS011;12772;49.794;10.024;2023-06-10T07:40:47;7.07;;;6.57;;
24635;SDS011;12772;49.794;10.024;2023-06-10T07:44:49;7.68;;;6.97;;
24635;SDS011;12772;49.794;10.024;2023-06-10T07:48:51;7.18;;;6.55;;
24635;SDS011;12772;49.794;10.024;2023-06-10T07:52:53;7.30;;;6.70;;
24635;SDS011;12772;49.794;10.024;2023-06-10T07:56:55;6.95;;;6.25;;
24635;SDS011;12772;49.794;10.024;2023-06-10T08:00:57;6.45;;;5.95;;
24635;SDS011;12772;49.794;10.024;2023-06-10T08:04:59;6.80;;;6.28;;
24635;SDS011;12772;49.794;10.024;2023-06-10T08:09:01;6.60;;;6.00;;
24635;SDS011;12772;49.794;10.024;2023-06-10T08:13:04;8.38;;;6.57;;
24635;SDS011;12772;49.794;10.024;2023-06-10T08:17:06;6.57;;;5.75;;
24635;SDS011;12772;49.794;10.024;2023-06-10T08:21:08;6.50;;;5.93;;
24635;SDS011;12772;49.794;10.024;2023-06-10T08:25:10;6.63;;;6.13;;
24635;SDS011;12772;49.794;10.024;2023-06-10T08:29:12;7.00;;;6.40;;
24635;SDS011;12772;49.794;10.024;2023-06-10T08:33:14;7.50;;;6.93;;
24635;SDS011;12772;49.794;10.024;2023-06-10T08:37:16;6.75;;;6.22;;
24635;SDS011;12772;49.794;10.024;2023-06-10T08:41:18;6.47;;;5.82;;
24635;SDS011;12772;49.794;10.024;2023-06-10T08:45:21;6.03;;;5.47;;
24635;SDS011;12772;49.794;10.024;2023-06-10T08:49:29;6.00;;;5.40;;
24635;SDS011;12772;49.794;10.024;2023-06-10T08:53:36;5.85;;;5.25;;
24635;SDS011;12772;49.794;10.024;2023-06-10T08:57:43;5.10;;;4.65;;
24635;SDS011;12772;49.794;10.024;2023-06-10T09:01:48;5.20;;;4.78;;
24635;SDS011;12772;49.794;10.024;2023-06-10T09:05:50;5.88;;;5.38;;
24635;SDS011;12772;49.794;10.024;2023-06-10T09:09:53;7.10;;;4.90;;
24635;SDS011;12772;49.794;10.024;2023-06-10T09:13:56;5.22;;;4.55;;
24635;SDS011;12772;49.794;10.024;2023-06-10T09:17:58;5.30;;;4.90;;
24635;SDS011;12772;49.794;10.024;2023-06-10T09:22:01;5.13;;;4.72;;
24635;SDS011;12772;49.794;10.024;2023-06-10T09:26:07;3.80;;;3.50;;
24635;SDS011;12772;49.794;10.024;2023-06-10T09:30:10;5.25;;;4.75;;
24635;SDS011;12772;49.794;10.024;2023-06-10T09:34:25;4.68;;;4.28;;
24635;SDS011;12772;49.794;10.024;2023-06-10T09:38:31;5.00;;;4.53;;
24635;SDS011;12772;49.794;10.024;2023-06-10T09:42:35;4.10;;;3.80;;
24635;SDS011;12772;49.794;10.024;2023-06-10T09:46:39;4.00;;;3.75;;
24635;SDS011;12772;49.794;10.024;2023-06-10T09:50:42;4.25;;;3.90;;
24635;SDS011;12772;49.794;10.024;2023-06-10T09:54:45;3.78;;;3.55;;
24635;SDS011;12772;49.794;10.024;2023-06-10T09:58:47;3.80;;;3.50;;
24635;SDS011;12772;49.794;10.024;2023-06-10T10:02:50;4.40;;;4.10;;
24635;SDS011;12772;49.794;10.024;2023-06-10T10:06:53;4.28;;;3.97;;
24635;SDS011;12772;49.794;10.024;2023-06-10T10:10:56;4.88;;;4.18;;
24635;SDS011;12772;49.794;10.024;2023-06-10T10:14:59;4.65;;;3.97;;
24635;SDS011;12772;49.794;10.024;2023-06-10T10:19:04;4.80;;;4.40;;
24635;SDS011;12772;49.794;10.024;2023-06-10T10:23:11;4.88;;;4.20;;
24635;SDS011;12772;49.794;10.024;2023-06-10T10:27:20;4.75;;;4.35;;
24635;SDS011;12772;49.794;10.024;2023-06-10T10:31:28;4.97;;;4.47;;
24635;SDS011;12772;49.794;10.024;2023-06-10T10:35:34;4.00;;;3.70;;
24635;SDS011;12772;49.794;10.024;2023-06-10T10:39:37;4.57;;;4.10;;
24635;SDS011;12772;49.794;10.024;2023-06-10T10:43:39;4.30;;;3.90;;
24635;SDS011;12772;49.794;10.024;2023-06-10T10:47:43;5.10;;;4.28;;
24635;SDS011;12772;49.794;10.024;2023-06-10T10:51:59;4.40;;;4.00;;
24635;SDS011;12772;49.794;10.024;2023-06-10T10:56:06;6.03;;;4.05;;
24635;SDS011;12772;49.794;10.024;2023-06-10T11:00:24;4.30;;;4.00;;
24635;SDS011;12772;49.794;10.024;2023-06-10T11:04:33;4.22;;;3.90;;
24635;SDS011;12772;49.794;10.024;2023-06-10T11:16:46;4.40;;;4.10;;
24635;SDS011;12772;49.794;10.024;2023-06-10T11:24:51;4.28;;;3.88;;
24635;SDS011;12772;49.794;10.024;2023-06-10T11:32:55;3.90;;;3.60;;
24635;SDS011;12772;49.794;10.024;2023-06-10T11:36:58;3.80;;;3.50;;
24635;SDS011;12772;49.794;10.024;2023-06-10T11:41:01;4.30;;;4.00;;
24635;SDS011;12772;49.794;10.024;2023-06-10T11:45:03;4.03;;;3.72;;
24635;SDS011;12772;49.794;10.024;2023-06-10T11:49:09;6.00;;;4.00;;
24635;SDS011;12772;49.794;10.024;2023-06-10T11:53:11;3.85;;;3.30;;
24635;SDS011;12772;49.794;10.024;2023-06-10T11:57:13;3.53;;;3.30;;
24635;SDS011;12772;49.794;10.024;2023-06-10T12:01:19;4.20;;;3.78;;
24635;SDS011;12772;49.794;10.024;2023-06-10T12:05:22;4.68;;;3.50;;
24635;SDS011;12772;49.794;10.024;2023-06-10T12:13:30;3.55;;;3.35;;
24635;SDS011;12772;49.794;10.024;2023-06-10T12:21:36;3.58;;;3.38;;
24635;SDS011;12772;49.794;10.024;2023-06-10T12:25:39;5.00;;;3.50;;
24635;SDS011;12772;49.794;10.024;2023-06-10T12:29:51;3.50;;;3.30;;
24635;SDS011;12772;49.794;10.024;2023-06-10T12:34:07;3.40;;;3.20;;
24635;SDS011;12772;49.794;10.024;2023-06-10T12:38:10;3.22;;;3.03;;
24635;SDS011;12772;49.794;10.024;2023-06-10T12:42:13;3.60;;;3.40;;
24635;SDS011;12772;49.794;10.024;2023-06-10T12:46:15;3.67;;;3.35;;
24635;SDS011;12772;49.794;10.024;2023-06-10T12:50:19;3.83;;;3.53;;
24635;SDS011;12772;49.794;10.024;2023-06-10T12:54:21;3.97;;;3.65;;
24635;SDS011;12772;49.794;10.024;2023-06-10T12:58:23;4.38;;;4.07;;
24635;SDS011;12772;49.794;10.024;2023-06-10T13:02:27;7.93;;;3.97;;
24635;SDS011;12772;49.794;10.024;2023-06-10T13:06:29;3.92;;;3.65;;
24635;SDS011;12772;49.794;10.024;2023-06-10T13:10:32;4.10;;;3.83;;
24635;SDS011;12772;49.794;10.024;2023-06-10T13:14:35;3.85;;;3.65;;
24635;SDS011;12772;49.794;10.024;2023-06-10T13:18:38;4.60;;;4.30;;
24635;SDS011;12772;49.794;10.024;2023-06-10T13:22:40;3.45;;;3.20;;
24635;SDS011;12772;49.794;10.024;2023-06-10T13:26:42;3.65;;;3.35;;
24635;SDS011;12772;49.794;10.024;2023-06-10T13:30:44;3.42;;;3.22;;
24635;SDS011;12772;49.794;10.024;2023-06-10T13:34:46;4.05;;;3.75;;
24635;SDS011;12772;49.794;10.024;2023-06-10T13:38:49;3.58;;;3.38;;
24635;SDS011;12772;49.794;10.024;2023-06-10T13:42:51;3.65;;;3.35;;
24635;SDS011;12772;49.794;10.024;2023-06-10T13:46:57;3.65;;;3.35;;
24635;SDS011;12772;49.794;10.024;2023-06-10T13:50:59;3.17;;;2.97;;
24635;SDS011;12772;49.794;10.024;2023-06-10T13:55:01;3.90;;;3.40;;
24635;SDS011;12772;49.794;10.024;2023-06-10T13:59:03;3.28;;;3.08;;
24635;SDS011;12772;49.794;10.024;2023-06-10T14:03:06;3.20;;;3.00;;
24635;SDS011;12772;49.794;10.024;2023-06-10T14:07:08;4.22;;;3.55;;
24635;SDS011;12772;49.794;10.024;2023-06-10T14:11:10;6.03;;;3.13;;
24635;SDS011;12772;49.794;10.024;2023-06-10T14:15:12;3.58;;;3.20;;
24635;SDS011;12772;49.794;10.024;2023-06-10T14:19:14;3.30;;;3.00;;
24635;SDS011;12772;49.794;10.024;2023-06-10T14:23:16;4.40;;;3.00;;
24635;SDS011;12772;49.794;10.024;2023-06-10T14:27:18;3.20;;;3.00;;
24635;SDS011;12772;49.794;10.024;2023-06-10T14:31:20;3.17;;;2.97;;
24635;SDS011;12772;49.794;10.024;2023-06-10T14:35:22;5.38;;;3.03;;
24635;SDS011;12772;49.794;10.024;2023-06-10T14:39:24;7.95;;;3.90;;
24635;SDS011;12772;49.794;10.024;2023-06-10T14:43:26;3.97;;;2.70;;
24635;SDS011;12772;49.794;10.024;2023-06-10T14:47:28;2.50;;;2.40;;
24635;SDS011;12772;49.794;10.024;2023-06-10T14:51:30;2.42;;;2.25;;
24635;SDS011;12772;49.794;10.024;2023-06-10T14:55:32;3.28;;;3.08;;
24635;SDS011;12772;49.794;10.024;2023-06-10T14:59:34;3.67;;;2.88;;
24635;SDS011;12772;49.794;10.024;2023-06-10T15:03:36;5.40;;;3.20;;
24635;SDS011;12772;49.794;10.024;2023-06-10T15:07:38;8.13;;;3.70;;
24635;SDS011;12772;49.794;10.024;2023-06-10T15:11:40;3.30;;;3.00;;
24635;SDS011;12772;49.794;10.024;2023-06-10T15:15:42;3.70;;;3.13;;
24635;SDS011;12772;49.794;10.024;2023-06-10T15:19:45;5.60;;;3.42;;
24635;SDS011;12772;49.794;10.024;2023-06-10T15:23:47;2.58;;;2.38;;
24635;SDS011;12772;49.794;10.024;2023-06-10T15:27:49;2.80;;;2.60;;
24635;SDS011;12772;49.794;10.024;2023-06-10T15:31:51;2.78;;;2.58;;
24635;SDS011;12772;49.794;10.024;2023-06-10T15:35:53;2.78;;;2.47;;
24635;SDS011;12772;49.794;10.024;2023-06-10T15:39:55;3.78;;;2.90;;
24635;SDS011;12772;49.794;10.024;2023-06-10T15:43:57;3.53;;;2.50;;
24635;SDS011;12772;49.794;10.024;2023-06-10T15:48:00;5.00;;;3.30;;
24635;SDS011;12772;49.794;10.024;2023-06-10T15:52:02;3.70;;;3.47;;
24635;SDS011;12772;49.794;10.024;2023-06-10T15:56:04;4.50;;;4.20;;
24635;SDS011;12772;49.794;10.024;2023-06-10T16:00:06;4.78;;;4.45;;
24635;SDS011;12772;49.794;10.024;2023-06-10T16:04:09;6.68;;;5.82;;
24635;SDS011;12772;49.794;10.024;2023-06-10T16:08:11;6.35;;;5.80;;
24635;SDS011;12772;49.794;10.024;2023-06-10T16:12:13;6.60;;;6.10;;
24635;SDS011;12772;49.794;10.024;2023-06-10T16:16:15;7.03;;;6.50;;
24635;SDS011;12772;49.794;10.024;2023-06-10T16:20:17;7.70;;;7.00;;
24635;SDS011;12772;49.794;10.024;2023-06-10T16:24:19;8.35;;;7.65;;
24635;SDS011;12772;49.794;10.024;2023-06-10T16:28:21;7.45;;;6.85;;
24635;SDS011;12772;49.794;10.024;2023-06-10T16:32:23;7.75;;;7.15;;
24635;SDS011;12772;49.794;10.024;2023-06-10T16:36:25;7.20;;;6.60;;
24635;SDS011;12772;49.794;10.024;2023-06-10T16:40:27;7.25;;;6.68;;
24635;SDS011;12772;49.794;10.024;2023-06-10T16:44:29;8.45;;;7.30;;
24635;SDS011;12772;49.794;10.024;2023-06-10T16:48:31;6.80;;;6.22;;
24635;SDS011;12772;49.794;10.024;2023-06-10T16:52:33;6.82;;;6.25;;
24635;SDS011;12772;49.794;10.024;2023-06-10T16:56:35;6.45;;;5.63;;
24635;SDS011;12772;49.794;10.024;2023-06-10T17:00:37;6.97;;;6.47;;
24635;SDS011;12772;49.794;10.024;2023-06-10T17:04:41;6.43;;;5.93;;
24635;SDS011;12772;49.794;10.024;2023-06-10T17:08:43;6.90;;;6.30;;
24635;SDS011;12772;49.794;10.024;2023-06-10T17:12:46;7.53;;;6.82;;
24635;SDS011;12772;49.794;10.024;2023-06-10T17:16:48;7.38;;;6.78;;
24635;SDS011;12772;49.794;10.024;2023-06-10T17:20:50;8.15;;;7.35;;
24635;SDS011;12772;49.794;10.024;2023-06-10T17:24:52;6.75;;;6.25;;
24635;SDS011;12772;49.794;10.024;2023-06-10T17:28:54;7.25;;;6.65;;
24635;SDS011;12772;49.794;10.024;2023-06-10T17:32:56;7.97;;;7.38;;
24635;SDS011;12772;49.794;10.024;2023-06-10T17:36:58;7.05;;;6.53;;
24635;SDS011;12772;49.794;10.024;2023-06-10T17:41:00;7.68;;;6.97;;
24635;SDS011;12772;49.794;10.024;2023-06-10T17:45:02;7.07;;;6.47;;
24635;SDS011;12772;49.794;10.024;2023-06-10T17:49:04;7.07;;;6.55;;
24635;SDS011;12772;49.794;10.024;2023-06-10T17:53:07;6.55;;;6.05;;
24635;SDS011;12772;49.794;10.024;2023-06-10T17:57:09;7.00;;;6.50;;
24635;SDS011;12772;49.794;10.024;2023-06-10T18:01:11;7.53;;;6.85;;
24635;SDS011;12772;49.794;10.024;2023-06-10T18:05:13;8.98;;;6.20;;
24635;SDS011;12772;49.794;10.024;2023-06-10T18:09:15;7.07;;;6.47;;
24635;SDS011;12772;49.794;10.024;2023-06-10T18:13:17;7.40;;;6.65;;
24635;SDS011;12772;49.794;10.024;2023-06-10T18:17:19;7.40;;;6.60;;
24635;SDS011;12772;49.794;10.024;2023-06-10T18:21:21;7.57;;;6.72;;
24635;SDS011;12772;49.794;10.024;2023-06-10T18:25:23;6.80;;;6.32;;
24635;SDS011;12772;49.794;10.024;2023-06-10T18:29:25;5.90;;;5.50;;
24635;SDS011;12772;49.794;10.024;2023-06-10T18:33:27;6.43;;;5.80;;
24635;SDS011;12772;49.794;10.024;2023-06-10T18:37:31;6.47;;;5.97;;
24635;SDS011;12772;49.794;10.024;2023-06-10T18:41:33;6.18;;;5.60;;
24635;SDS011;12772;49.794;10.024;2023-06-10T18:45:35;5.60;;;5.15;;
24635;SDS011;12772;49.794;10.024;2023-06-10T18:49:37;6.20;;;5.60;;
24635;SDS011;12772;49.794;10.024;2023-06-10T18:53:40;6.65;;;5.93;;
24635;SDS011;12772;49.794;10.024;2023-06-10T18:57:42;6.05;;;5.55;;
24635;SDS011;12772;49.794;10.024;2023-06-10T19:01:44;5.88;;;5.38;;
24635;SDS011;12772;49.794;10.024;2023-06-10T19:05:46;5.55;;;5.15;;
24635;SDS011;12772;49.794;10.024;2023-06-10T19:09:48;5.75;;;5.25;;
24635;SDS011;12772;49.794;10.024;2023-06-10T19:13:50;5.43;;;5.03;;
24635;SDS011;12772;49.794;10.024;2023-06-10T19:17:52;5.43;;;5.10;;
24635;SDS011;12772;49.794;10.024;2023-06-10T19:21:54;5.63;;;5.18;;
24635;SDS011;12772;49.794;10.024;2023-06-10T19:25:56;5.78;;;5.28;;
24635;SDS011;12772;49.794;10.024;2023-06-10T19:30:00;6.60;;;6.10;;
24635;SDS011;12772;49.794;10.024;2023-06-10T19:34:04;5.82;;;5.32;;
24635;SDS011;12772;49.794;10.024;2023-06-10T19:38:06;6.45;;;5.82;;
24635;SDS011;12772;49.794;10.024;2023-06-10T19:42:08;6.25;;;5.80;;
24635;SDS011;12772;49.794;10.024;2023-06-10T19:46:11;5.65;;;5.18;;
24635;SDS011;12772;49.794;10.024;2023-06-10T19:50:13;5.45;;;5.05;;
24635;SDS011;12772;49.794;10.024;2023-06-10T19:54:15;5.85;;;5.43;;
24635;SDS011;12772;49.794;10.024;2023-06-10T19:58:17;5.80;;;5.20;;
24635;SDS011;12772;49.794;10.024;2023-06-10T20:02:19;6.03;;;5.53;;
24635;SDS011;12772;49.794;10.024;2023-06-10T20:06:21;6.25;;;5.65;;
24635;SDS011;12772;49.794;10.024;2023-06-10T20:10:23;5.47;;;5.05;;
24635;SDS011;12772;49.794;10.024;2023-06-10T20:14:25;6.00;;;5.50;;
24635;SDS011;12772;49.794;10.024;2023-06-10T20:18:27;6.30;;;5.80;;
24635;SDS011;12772;49.794;10.024;2023-06-10T20:22:29;6.15;;;5.60;;
24635;SDS011;12772;49.794;10.024;2023-06-10T20:26:32;6.15;;;5.68;;
24635;SDS011;12772;49.794;10.024;2023-06-10T20:30:34;5.75;;;5.35;;
24635;SDS011;12772;49.794;10.024;2023-06-10T20:34:38;6.47;;;5.97;;
24635;SDS011;12772;49.794;10.024;2023-06-10T20:38:41;6.72;;;6.05;;
24635;SDS011;12772;49.794;10.024;2023-06-10T20:42:43;5.85;;;5.40;;
24635;SDS011;12772;49.794;10.024;2023-06-10T20:46:45;6.60;;;6.00;;
24635;SDS011;12772;49.794;10.024;2023-06-10T20:50:48;6.57;;;6.07;;
24635;SDS011;12772;49.794;10.024;2023-06-10T20:54:50;6.30;;;5.70;;
24635;SDS011;12772;49.794;10.024;2023-06-10T20:58:52;5.90;;;5.50;;
24635;SDS011;12772;49.794;10.024;2023-06-10T21:02:54;6.38;;;5.78;;
24635;SDS011;12772;49.794;10.024;2023-06-10T21:06:56;6.18;;;5.68;;
24635;SDS011;12772;49.794;10.024;2023-06-10T21:10:58;6.18;;;5.78;;
24635;SDS011;12772;49.794;10.024;2023-06-10T21:15:00;6.90;;;5.88;;
24635;SDS011;12772;49.794;10.024;2023-06-10T21:19:02;6.10;;;5.63;;
24635;SDS011;12772;49.794;10.024;2023-06-10T21:23:04;6.05;;;5.55;;
24635;SDS011;12772;49.794;10.024;2023-06-10T21:27:07;6.88;;;6.38;;
24635;SDS011;12772;49.794;10.024;2023-06-10T21:31:09;6.60;;;6.00;;
24635;SDS011;12772;49.794;10.024;2023-06-10T21:35:11;6.57;;;6.00;;
24635;SDS011;12772;49.794;10.024;2023-06-10T21:39:13;6.80;;;6.10;;
24635;SDS011;12772;49.794;10.024;2023-06-10T21:43:16;6.75;;;6.20;;
24635;SDS011;12772;49.794;10.024;2023-06-10T21:47:18;6.68;;;6.07;;
24635;SDS011;12772;49.794;10.024;2023-06-10T21:51:20;6.78;;;6.18;;
24635;SDS011;12772;49.794;10.024;2023-06-10T21:55:22;7.00;;;6.47;;
24635;SDS011;12772;49.794;10.024;2023-06-10T21:59:24;6.82;;;6.22;;
24635;SDS011;12772;49.794;10.024;2023-06-10T22:03:26;9.30;;;6.57;;
24635;SDS011;12772;49.794;10.024;2023-06-10T22:07:28;6.60;;;6.10;;
24635;SDS011;12772;49.794;10.024;2023-06-10T22:11:30;7.28;;;6.63;;
24635;SDS011;12772;49.794;10.024;2023-06-10T22:15:32;7.93;;;6.20;;
24635;SDS011;12772;49.794;10.024;2023-06-10T22:19:34;6.97;;;6.22;;
24635;SDS011;12772;49.794;10.024;2023-06-10T22:23:38;7.55;;;6.88;;
24635;SDS011;12772;49.794;10.024;2023-06-10T22:27:40;6.10;;;5.60;;
24635;SDS011;12772;49.794;10.024;2023-06-10T22:31:42;7.05;;;6.38;;
24635;SDS011;12772;49.794;10.024;2023-06-10T22:35:44;7.20;;;6.47;;
24635;SDS011;12772;49.794;10.024;2023-06-10T22:39:46;7.05;;;6.38;;
24635;SDS011;12772;49.794;10.024;2023-06-10T22:43:48;6.80;;;6.20;;
24635;SDS011;12772;49.794;10.024;2023-06-10T22:47:52;6.53;;;5.40;;
24635;SDS011;12772;49.794;10.024;2023-06-10T22:51:54;5.68;;;5.28;;
24635;SDS011;12772;49.794;10.024;2023-06-10T22:55:56;5.80;;;5.30;;
24635;SDS011;12772;49.794;10.024;2023-06-10T22:59:58;7.10;;;6.30;;
24635;SDS011;12772;49.794;10.024;2023-06-10T23:04:00;6.50;;;5.50;;
24635;SDS011;12772;49.794;10.024;2023-06-10T23:08:02;6.10;;;5.55;;
24635;SDS011;12772;49.794;10.024;2023-06-10T23:12:04;5.68;;;5.28;;
24635;SDS011;12772;49.794;10.024;2023-06-10T23:16:07;5.75;;;5.18;;
24635;SDS011;12772;49.794;10.024;2023-06-10T23:20:09;6.03;;;5.53;;
24635;SDS011;12772;49.794;10.024;2023-06-10T23:24:11;6.63;;;5.90;;
24635;SDS011;12772;49.794;10.024;2023-06-10T23:28:16;6.70;;;6.20;;
24635;SDS011;12772;49.794;10.024;2023-06-10T23:32:18;5.88;;;5.47;;
24635;SDS011;12772;49.794;10.024;2023-06-10T23:36:21;6.60;;;5.85;;
24635;SDS011;12772;49.794;10.024;2023-06-10T23:40:24;6.40;;;5.90;;
24635;SDS011;12772;49.794;10.024;2023-06-10T23:44:26;6.88;;;6.28;;
24635;SDS011;12772;49.794;10.024;2023-06-10T23:48:28;7.20;;;6.50;;
24635;SDS011;12772;49.794;10.024;2023-06-10T23:52:30;7.32;;;6.53;;
24635;SDS011;12772;49.794;10.024;2023-06-10T23:56:32;6.38;;;5.88;;
